createdAt,value
2022-11-22T00:00:05.731Z,1.3
2022-11-22T00:01:05.969Z,1.33
2022-11-22T00:02:06.141Z,1.3
2022-11-22T00:03:05.664Z,1.3
2022-11-22T00:04:05.663Z,1.39
2022-11-22T00:05:05.634Z,1.38
2022-11-22T00:06:05.619Z,1.42
2022-11-22T00:07:05.886Z,1.39
2022-11-22T00:08:05.828Z,1.42
2022-11-22T00:09:05.298Z,1.39
2022-11-22T00:10:05.540Z,1.42
2022-11-22T00:11:05.514Z,1.39
2022-11-22T00:12:05.492Z,1.46
2022-11-22T00:13:05.554Z,1.32
2022-11-22T00:14:05.520Z,1.4
2022-11-22T00:15:05.441Z,1.36
2022-11-22T00:16:05.679Z,1.35
2022-11-22T00:17:05.409Z,1.38
2022-11-22T00:18:05.644Z,1.4
2022-11-22T00:19:05.363Z,1.36
2022-11-22T00:20:05.598Z,1.36
2022-11-22T00:21:05.063Z,1.4
2022-11-22T00:22:05.570Z,1.39
2022-11-22T00:23:05.551Z,1.44
2022-11-22T00:24:05.527Z,1.33
2022-11-22T00:25:05.267Z,1.35
2022-11-22T00:26:04.985Z,1.36
2022-11-22T00:27:05.209Z,1.35
2022-11-22T00:28:05.191Z,1.38
2022-11-22T00:29:05.198Z,1.39
2022-11-22T00:30:05.462Z,1.36
2022-11-22T00:31:05.145Z,1.4
2022-11-22T00:32:05.371Z,1.46
2022-11-22T00:33:05.373Z,1.47
2022-11-22T00:34:05.334Z,1.51
2022-11-22T00:35:05.064Z,1.44
2022-11-22T00:36:04.791Z,1.47
2022-11-22T00:37:05.018Z,1.53
2022-11-22T00:38:04.747Z,1.6
2022-11-22T00:39:04.993Z,1.56
2022-11-22T00:40:05.290Z,1.51
2022-11-22T00:41:04.963Z,1.5
2022-11-22T00:42:05.185Z,1.64
2022-11-22T00:43:05.171Z,1.5
2022-11-22T00:44:05.159Z,1.47
2022-11-22T00:45:05.165Z,1.58
2022-11-22T00:46:04.899Z,1.57
2022-11-22T00:47:04.584Z,1.56
2022-11-22T00:48:05.078Z,1.47
2022-11-22T00:49:05.058Z,1.54
2022-11-22T00:50:04.520Z,1.6
2022-11-22T00:51:05.017Z,1.58
2022-11-22T00:52:04.738Z,1.51
2022-11-22T00:53:04.986Z,1.51
2022-11-22T00:54:04.968Z,1.51
2022-11-22T00:55:04.683Z,1.57
2022-11-22T00:56:04.402Z,1.53
2022-11-22T00:57:04.923Z,1.53
2022-11-22T00:58:04.649Z,1.57
2022-11-22T00:59:04.615Z,1.5
2022-11-22T01:00:04.588Z,1.53
2022-11-22T01:01:05.315Z,1.53
2022-11-22T01:02:04.869Z,1.56
2022-11-22T01:03:04.530Z,1.56
2022-11-22T01:04:04.771Z,1.6
2022-11-22T01:05:04.250Z,1.5
2022-11-22T01:06:04.488Z,1.46
2022-11-22T01:07:04.564Z,1.57
2022-11-22T01:08:04.440Z,1.4
2022-11-22T01:09:04.420Z,1.56
2022-11-22T01:10:04.683Z,1.56
2022-11-22T01:11:04.376Z,1.53
2022-11-22T01:12:04.365Z,1.6
2022-11-22T01:13:04.343Z,1.56
2022-11-22T01:14:04.401Z,1.58
2022-11-22T01:15:04.376Z,1.56
2022-11-22T01:16:04.100Z,1.64
2022-11-22T01:17:04.622Z,1.56
2022-11-22T01:18:04.638Z,1.57
2022-11-22T01:19:04.047Z,1.61
2022-11-22T01:20:04.304Z,1.57
2022-11-22T01:21:04.522Z,1.58
2022-11-22T01:22:04.249Z,1.51
2022-11-22T01:23:03.967Z,1.46
2022-11-22T01:24:04.216Z,1.5
2022-11-22T01:25:04.203Z,1.53
2022-11-22T01:26:04.170Z,1.53
2022-11-22T01:27:04.152Z,1.6
2022-11-22T01:28:04.128Z,1.57
2022-11-22T01:29:04.111Z,1.44
2022-11-22T01:30:03.843Z,1.47
2022-11-22T01:31:04.082Z,1.44
2022-11-22T01:32:04.056Z,1.44
2022-11-22T01:33:04.318Z,1.39
2022-11-22T01:34:04.072Z,1.32
2022-11-22T01:35:04.000Z,1.36
2022-11-22T01:36:03.981Z,1.42
2022-11-22T01:37:03.709Z,1.4
2022-11-22T01:38:03.939Z,1.35
2022-11-22T01:39:04.182Z,1.42
2022-11-22T01:40:04.158Z,1.35
2022-11-22T01:41:04.036Z,1.39
2022-11-22T01:42:03.866Z,1.48
2022-11-22T01:43:03.847Z,1.51
2022-11-22T01:44:03.571Z,1.48
2022-11-22T01:45:03.810Z,1.48
2022-11-22T01:46:04.044Z,1.38
2022-11-22T01:47:03.769Z,1.35
2022-11-22T01:48:03.754Z,1.33
2022-11-22T01:49:04.015Z,1.46
2022-11-22T01:50:03.764Z,1.39
2022-11-22T01:51:03.953Z,1.39
2022-11-22T01:52:03.670Z,1.44
2022-11-22T01:53:03.660Z,1.39
2022-11-22T01:54:03.911Z,1.48
2022-11-22T01:55:03.872Z,1.5
2022-11-22T01:56:03.596Z,1.5
2022-11-22T01:57:03.833Z,1.56
2022-11-22T01:58:03.562Z,1.51
2022-11-22T01:59:03.545Z,1.54
2022-11-22T02:00:03.537Z,1.53
2022-11-22T02:01:03.777Z,1.5
2022-11-22T02:02:03.247Z,1.38
2022-11-22T02:03:03.470Z,1.36
2022-11-22T02:04:03.465Z,1.36
2022-11-22T02:05:03.719Z,1.4
2022-11-22T02:06:03.471Z,1.38
2022-11-22T02:07:04.581Z,1.36
2022-11-22T02:08:04.180Z,1.38
2022-11-22T02:09:04.167Z,1.38
2022-11-22T02:10:04.153Z,1.4
2022-11-22T02:11:04.391Z,1.39
2022-11-22T02:12:03.856Z,1.33
2022-11-22T02:13:04.343Z,1.39
2022-11-22T02:14:04.063Z,1.38
2022-11-22T02:15:04.320Z,1.46
2022-11-22T02:16:04.281Z,1.39
2022-11-22T02:17:04.008Z,1.36
2022-11-22T02:18:03.986Z,1.42
2022-11-22T02:19:04.228Z,1.38
2022-11-22T02:20:03.967Z,1.39
2022-11-22T02:21:04.220Z,1.38
2022-11-22T02:22:04.217Z,1.5
2022-11-22T02:23:03.896Z,1.48
2022-11-22T02:24:04.135Z,1.53
2022-11-22T02:25:03.599Z,1.54
2022-11-22T02:26:04.095Z,1.56
2022-11-22T02:28:03.809Z,1.54
2022-11-22T02:29:03.781Z,1.56
2022-11-22T02:30:04.018Z,1.47
2022-11-22T02:31:03.761Z,1.54
2022-11-22T02:32:03.981Z,1.5
2022-11-22T02:33:03.702Z,1.47
2022-11-22T02:34:06.675Z,1.56
2022-11-22T02:35:03.924Z,1.56
2022-11-22T02:36:03.920Z,1.53
2022-11-22T02:37:03.656Z,1.6
2022-11-22T02:38:03.665Z,1.64
2022-11-22T02:39:03.849Z,1.6
2022-11-22T02:40:03.313Z,1.64
2022-11-22T02:41:03.551Z,1.65
2022-11-22T02:42:03.280Z,1.68
2022-11-22T02:43:03.514Z,1.61
2022-11-22T02:44:03.500Z,1.68
2022-11-22T02:45:03.470Z,1.65
2022-11-22T02:46:03.711Z,1.71
2022-11-22T02:47:03.691Z,1.71
2022-11-22T02:48:03.421Z,1.6
2022-11-22T02:49:03.403Z,1.76
2022-11-22T02:50:03.390Z,1.72
2022-11-22T02:51:03.366Z,1.78
2022-11-22T02:52:03.341Z,1.69
2022-11-22T02:53:03.614Z,1.71
2022-11-22T02:54:03.611Z,1.71
2022-11-22T02:55:03.565Z,1.79
2022-11-22T02:56:03.012Z,1.71
2022-11-22T02:57:03.000Z,1.72
2022-11-22T02:58:03.487Z,1.78
2022-11-22T02:59:03.222Z,1.72
2022-11-22T03:00:03.200Z,1.74
2022-11-22T03:01:03.399Z,1.82
2022-11-22T03:02:08.035Z,1.87
2022-11-22T03:03:03.149Z,1.84
2022-11-22T03:04:03.149Z,1.9
2022-11-22T03:05:03.422Z,1.86
2022-11-22T03:06:02.826Z,1.84
2022-11-22T03:07:02.864Z,1.87
2022-11-22T03:08:03.294Z,1.82
2022-11-22T03:09:03.080Z,1.83
2022-11-22T03:10:03.307Z,2.02
2022-11-22T03:11:02.743Z,1.9
2022-11-22T03:12:02.707Z,1.98
2022-11-22T03:13:02.963Z,2.04
2022-11-22T03:14:03.192Z,1.98
2022-11-22T03:15:02.922Z,1.94
2022-11-22T03:16:03.151Z,2.04
2022-11-22T03:17:02.869Z,2.06
2022-11-22T03:18:02.853Z,2.11
2022-11-22T03:19:02.845Z,2.04
2022-11-22T03:20:02.816Z,2.05
2022-11-22T03:21:03.076Z,2.06
2022-11-22T03:22:02.517Z,2.08
2022-11-22T03:23:02.802Z,2.01
2022-11-22T03:24:02.995Z,2.02
2022-11-22T03:25:03.049Z,1.98
2022-11-22T03:26:03.009Z,2.02
2022-11-22T03:27:02.938Z,2.05
2022-11-22T03:28:02.676Z,2.08
2022-11-22T03:29:02.654Z,1.89
2022-11-22T03:30:02.893Z,1.94
2022-11-22T03:31:02.611Z,1.98
2022-11-22T03:32:02.848Z,1.86
2022-11-22T03:33:02.832Z,1.84
2022-11-22T03:49:52.042Z,1.94
2022-11-22T03:50:51.434Z,1.87
2022-11-22T03:51:51.674Z,1.9
2022-11-22T03:52:51.389Z,1.94
2022-11-22T03:53:51.630Z,1.97
2022-11-22T03:54:51.860Z,1.93
2022-11-22T03:55:51.586Z,2.01
2022-11-22T03:56:51.316Z,2.02
2022-11-22T03:57:51.543Z,1.97
2022-11-22T03:58:51.782Z,2.01
2022-11-22T03:59:51.760Z,2.04
2022-11-22T04:00:51.255Z,2.05
2022-11-22T04:01:51.507Z,2.06
2022-11-22T04:02:51.446Z,2.11
2022-11-22T04:03:51.696Z,2.06
2022-11-22T04:04:51.929Z,2.09
2022-11-22T04:05:51.992Z,2.09
2022-11-22T04:06:51.641Z,2.08
2022-11-22T04:07:51.772Z,2.06
2022-11-22T04:08:52.115Z,2.12
2022-11-22T04:09:51.836Z,2.13
2022-11-22T04:10:51.559Z,2.18
2022-11-22T04:11:51.797Z,2.22
2022-11-22T04:12:51.532Z,2.15
2022-11-22T04:13:51.505Z,2.16
2022-11-22T04:14:51.742Z,2.23
2022-11-22T04:15:51.207Z,2.2
2022-11-22T04:16:51.699Z,2.16
2022-11-22T04:17:51.429Z,2.15
2022-11-22T04:18:51.663Z,2.33
2022-11-22T04:19:51.393Z,2.23
2022-11-22T04:20:51.370Z,2.3
2022-11-22T04:21:51.744Z,2.3
2022-11-22T04:22:51.588Z,2.3
2022-11-22T04:23:51.571Z,2.24
2022-11-22T04:24:51.546Z,2.29
2022-11-22T04:25:51.275Z,2.33
2022-11-22T04:26:51.566Z,2.33
2022-11-22T04:27:51.503Z,2.34
2022-11-22T04:29:13.743Z,2.33
2022-11-22T04:29:51.197Z,2.36
2022-11-22T04:30:51.188Z,2.31
2022-11-22T04:31:51.162Z,2.33
2022-11-22T04:32:51.140Z,2.31
2022-11-22T04:33:51.432Z,2.31
2022-11-22T04:34:51.110Z,2.27
2022-11-22T04:35:51.360Z,2.2
2022-11-22T04:36:51.077Z,2.16
2022-11-22T04:37:51.388Z,2.26
2022-11-22T04:38:50.773Z,2.2
2022-11-22T04:39:51.010Z,2.16
2022-11-22T04:40:51.250Z,2.26
2022-11-22T04:41:51.231Z,2.2
2022-11-22T04:42:50.955Z,2.15
2022-11-22T04:43:51.194Z,2.22
2022-11-22T04:44:50.923Z,2.27
2022-11-22T04:45:50.901Z,2.23
2022-11-22T04:46:51.145Z,2.22
2022-11-22T04:47:55.069Z,2.2
2022-11-22T04:48:50.892Z,2.13
2022-11-22T04:49:51.089Z,2.3
2022-11-22T04:50:51.086Z,2.33
2022-11-22T04:51:50.802Z,2.31
2022-11-22T04:52:50.779Z,2.29
2022-11-22T04:53:51.086Z,2.23
2022-11-22T04:54:50.734Z,2.26
2022-11-22T04:55:50.722Z,2.2
2022-11-22T04:56:50.697Z,2.18
2022-11-22T04:57:54.523Z,2.26
2022-11-22T04:58:50.756Z,2.31
2022-11-22T04:59:50.637Z,2.3
2022-11-22T05:00:50.889Z,2.3
2022-11-22T05:01:50.344Z,2.3
2022-11-22T05:02:50.588Z,2.31
2022-11-22T05:03:50.900Z,2.34
2022-11-22T05:04:55.194Z,2.31
2022-11-22T05:05:51.024Z,2.36
2022-11-22T05:06:50.772Z,2.33
2022-11-22T05:07:50.743Z,2.29
2022-11-22T05:08:50.481Z,2.38
2022-11-22T05:09:50.784Z,2.34
2022-11-22T05:10:50.182Z,2.36
2022-11-22T05:11:50.185Z,2.34
2022-11-22T05:12:50.653Z,2.29
2022-11-22T05:13:50.122Z,2.3
2022-11-22T05:14:50.359Z,2.29
2022-11-22T05:15:50.343Z,2.34
2022-11-22T05:16:50.325Z,2.34
2022-11-22T05:17:50.064Z,2.4
2022-11-22T05:18:50.540Z,2.36
2022-11-22T05:19:54.097Z,2.38
2022-11-22T05:20:50.247Z,2.33
2022-11-22T05:21:49.970Z,2.34
2022-11-22T05:22:49.952Z,2.3
2022-11-22T05:23:50.189Z,2.31
2022-11-22T05:24:50.438Z,2.29
2022-11-22T05:25:50.483Z,2.36
2022-11-22T05:26:50.148Z,2.36
2022-11-22T05:27:49.885Z,2.36
2022-11-22T05:28:50.359Z,2.31
2022-11-22T05:29:50.333Z,2.33
2022-11-22T05:30:50.321Z,2.3
2022-11-22T05:31:55.651Z,2.36
2022-11-22T05:32:50.296Z,2.31
2022-11-22T05:33:50.009Z,2.29
2022-11-22T05:34:49.983Z,2.33
2022-11-22T05:35:49.966Z,2.29
2022-11-22T05:36:49.951Z,2.31
2022-11-22T05:37:50.188Z,2.27
2022-11-22T05:38:49.909Z,2.31
2022-11-22T05:39:49.903Z,2.26
2022-11-22T05:40:49.870Z,2.27
2022-11-22T05:41:50.192Z,2.3
2022-11-22T05:42:50.095Z,2.29
2022-11-22T05:43:49.574Z,2.15
2022-11-22T05:44:50.054Z,2.24
2022-11-22T05:45:50.036Z,2.2
2022-11-22T05:46:49.771Z,2.16
2022-11-22T05:47:49.490Z,2.11
2022-11-22T05:48:49.980Z,2.11
2022-11-22T05:49:49.958Z,2.13
2022-11-22T05:50:49.952Z,2.15
2022-11-22T05:51:49.675Z,2.2
2022-11-22T05:52:49.902Z,2.12
2022-11-22T05:53:49.642Z,2.12
2022-11-22T05:54:49.617Z,2.12
2022-11-22T05:55:49.852Z,2.18
2022-11-22T05:56:49.836Z,2.11
2022-11-22T05:57:49.900Z,2.15
2022-11-22T05:58:49.535Z,2.11
2022-11-22T05:59:49.525Z,2.08
2022-11-22T06:00:49.762Z,2.06
2022-11-22T06:01:49.646Z,2.06
2022-11-22T06:02:49.725Z,2.06
2022-11-22T06:03:49.703Z,2.02
2022-11-22T06:04:49.435Z,1.97
2022-11-22T06:05:49.155Z,2.09
2022-11-22T06:06:49.391Z,1.93
2022-11-22T06:07:49.290Z,2.02
2022-11-22T06:08:49.363Z,2.02
2022-11-22T06:09:49.591Z,1.97
2022-11-22T06:10:49.057Z,1.97
2022-11-22T06:11:49.577Z,1.97
2022-11-22T06:12:49.545Z,1.92
2022-11-22T06:13:49.612Z,1.94
2022-11-22T06:14:49.247Z,1.89
2022-11-22T06:15:49.482Z,1.86
2022-11-22T06:16:49.216Z,1.94
2022-11-22T06:17:49.195Z,1.93
2022-11-22T06:18:49.535Z,2.02
2022-11-22T06:19:49.156Z,1.97
2022-11-22T06:20:49.135Z,1.92
2022-11-22T06:21:48.859Z,1.86
2022-11-22T06:22:49.670Z,1.93
2022-11-22T06:23:49.328Z,1.97
2022-11-22T06:24:48.802Z,2.05
2022-11-22T06:25:49.292Z,1.97
2022-11-22T06:26:49.021Z,2.01
2022-11-22T06:27:49.266Z,2.08
2022-11-22T06:28:48.997Z,2.06
2022-11-22T06:29:49.304Z,2.15
2022-11-22T06:30:49.216Z,2.08
2022-11-22T06:31:48.943Z,2.12
2022-11-22T06:32:49.060Z,2.12
2022-11-22T06:33:48.884Z,2.11
2022-11-22T06:34:48.868Z,2.02
2022-11-22T06:35:48.591Z,2.06
2022-11-22T06:36:48.844Z,1.93
2022-11-22T06:37:48.812Z,1.93
2022-11-22T06:38:48.801Z,1.9
2022-11-22T06:39:49.029Z,1.86
2022-11-22T06:40:48.764Z,1.83
2022-11-22T06:41:48.740Z,1.86
2022-11-22T06:42:48.727Z,1.84
2022-11-22T06:43:53.256Z,1.89
2022-11-22T06:44:48.941Z,1.84
2022-11-22T06:45:49.013Z,1.86
2022-11-22T06:46:48.659Z,1.86
2022-11-22T06:47:48.903Z,1.86
2022-11-22T06:48:48.615Z,1.83
2022-11-22T06:49:48.850Z,1.87
2022-11-22T06:50:48.573Z,1.71
2022-11-22T06:51:48.942Z,1.69
2022-11-22T06:52:48.550Z,1.75
2022-11-22T06:53:53.450Z,1.69
2022-11-22T06:54:48.502Z,1.75
2022-11-22T06:56:03.457Z,1.75
2022-11-22T06:56:48.717Z,1.74
2022-11-22T06:57:48.447Z,1.76
2022-11-22T06:58:48.420Z,1.74
2022-11-22T06:59:48.663Z,1.84
2022-11-22T07:00:48.280Z,1.74
2022-11-22T07:01:48.988Z,1.84
2022-11-22T07:02:48.355Z,1.82
2022-11-22T07:03:48.334Z,1.75
2022-11-22T07:05:28.139Z,1.84
2022-11-22T07:05:48.545Z,1.9
2022-11-22T07:06:48.376Z,1.84
2022-11-22T07:07:48.687Z,1.84
2022-11-22T07:08:48.504Z,1.84
2022-11-22T07:09:50.939Z,1.79
2022-11-22T07:10:48.501Z,1.84
2022-11-22T07:11:48.433Z,1.78
2022-11-22T07:12:48.157Z,1.92
2022-11-22T07:13:48.148Z,1.92
2022-11-22T07:14:48.378Z,1.94
2022-11-22T07:15:47.848Z,1.93
2022-11-22T07:16:48.080Z,1.86
2022-11-22T07:17:48.415Z,1.84
2022-11-22T07:18:48.312Z,1.92
2022-11-22T07:19:48.024Z,2.01
2022-11-22T07:20:48.274Z,1.93
2022-11-22T07:21:48.331Z,1.94
2022-11-22T07:22:48.238Z,2.01
2022-11-22T07:23:48.073Z,1.92
2022-11-22T07:24:47.933Z,1.93
2022-11-22T07:25:47.922Z,2.02
2022-11-22T07:26:48.155Z,2.09
2022-11-22T07:27:47.877Z,2.04
2022-11-22T07:28:48.123Z,2.08
2022-11-22T07:29:47.848Z,2.06
2022-11-22T07:30:49.264Z,2.06
2022-11-22T07:31:48.203Z,2.05
2022-11-22T07:32:48.181Z,2.04
2022-11-22T07:33:48.526Z,2.15
2022-11-22T07:34:48.397Z,2.06
2022-11-22T07:35:48.133Z,2.16
2022-11-22T07:36:48.372Z,2.13
2022-11-22T07:37:48.372Z,2.23
2022-11-22T07:38:48.106Z,2.18
2022-11-22T07:39:48.311Z,2.15
2022-11-22T07:40:48.289Z,2.26
2022-11-22T07:41:48.274Z,2.13
2022-11-22T07:42:48.257Z,2.24
2022-11-22T07:43:48.237Z,2.2
2022-11-22T07:44:48.221Z,2.33
2022-11-22T07:45:48.210Z,2.31
2022-11-22T07:46:47.923Z,2.33
2022-11-22T07:47:48.165Z,2.29
2022-11-22T07:48:47.626Z,2.34
2022-11-22T07:49:48.236Z,2.3
2022-11-22T07:50:47.848Z,2.41
2022-11-22T07:51:47.829Z,2.49
2022-11-22T07:52:47.814Z,2.49
2022-11-22T07:53:47.792Z,2.51
2022-11-22T07:54:47.517Z,2.55
2022-11-22T07:55:47.763Z,2.6
2022-11-22T07:56:47.745Z,2.51
2022-11-22T07:57:48.264Z,2.54
2022-11-22T07:58:47.699Z,2.62
2022-11-22T07:59:47.430Z,2.58
2022-11-22T08:00:47.674Z,2.62
2022-11-22T08:01:48.344Z,2.65
2022-11-22T08:02:47.902Z,2.59
2022-11-22T08:03:47.872Z,2.7
2022-11-22T08:04:47.591Z,2.83
2022-11-22T08:05:48.217Z,2.77
2022-11-22T08:06:47.811Z,2.76
2022-11-22T08:07:47.909Z,2.8
2022-11-22T08:08:47.269Z,2.84
2022-11-22T08:09:47.497Z,2.81
2022-11-22T08:10:47.484Z,2.83
2022-11-22T08:11:47.468Z,2.83
2022-11-22T08:12:47.441Z,2.95
2022-11-22T08:13:47.431Z,2.84
2022-11-22T08:14:47.415Z,2.85
2022-11-22T08:15:47.651Z,2.87
2022-11-22T08:16:47.728Z,2.96
2022-11-22T08:17:47.393Z,2.91
2022-11-22T08:18:47.339Z,2.95
2022-11-22T08:19:47.572Z,2.96
2022-11-22T08:20:47.565Z,3.02
2022-11-22T08:21:47.896Z,2.99
2022-11-22T08:22:47.271Z,3.08
2022-11-22T08:23:47.244Z,3.05
2022-11-22T08:24:47.229Z,3.05
2022-11-22T08:25:47.203Z,3.11
2022-11-22T08:26:47.445Z,3.2
2022-11-22T08:27:47.175Z,3.14
2022-11-22T08:28:47.434Z,3.09
2022-11-22T08:29:47.391Z,3.13
2022-11-22T08:30:47.113Z,3.19
2022-11-22T08:31:47.374Z,3.17
2022-11-22T08:32:47.362Z,3.13
2022-11-22T08:33:47.322Z,3.16
2022-11-22T08:34:51.649Z,3.2
2022-11-22T08:35:47.031Z,3.26
2022-11-22T08:36:46.750Z,3.2
2022-11-22T08:37:47.613Z,3.23
2022-11-22T08:38:46.728Z,3.23
2022-11-22T08:39:46.949Z,3.21
2022-11-22T08:40:46.940Z,3.24
2022-11-22T08:41:46.915Z,3.19
2022-11-22T08:42:47.150Z,3.21
2022-11-22T08:43:46.877Z,3.23
2022-11-22T08:44:47.119Z,3.2
2022-11-22T08:45:47.099Z,3.23
2022-11-22T08:46:47.320Z,3.17
2022-11-22T08:47:47.051Z,3.23
2022-11-22T08:48:47.281Z,3.23
2022-11-22T08:49:47.275Z,3.17
2022-11-22T08:50:47.242Z,3.17
2022-11-22T08:51:47.237Z,3.24
2022-11-22T08:52:47.255Z,3.19
2022-11-22T08:53:47.458Z,3.37
2022-11-22T08:54:47.175Z,3.39
2022-11-22T08:55:47.156Z,3.34
2022-11-22T08:56:46.634Z,3.35
2022-11-22T08:57:46.874Z,3.39
2022-11-22T08:58:47.238Z,3.37
2022-11-22T08:59:46.847Z,3.46
2022-11-22T09:00:46.573Z,3.37
2022-11-22T09:01:47.416Z,3.42
2022-11-22T09:02:47.029Z,3.37
2022-11-22T09:03:47.026Z,3.42
2022-11-22T09:04:46.741Z,3.42
2022-11-22T09:08:25.703Z,3.45
2022-11-22T09:09:42.883Z,3.48
2022-11-22T09:10:25.593Z,3.53
2022-11-22T09:11:25.448Z,3.51
2022-11-22T09:12:25.683Z,3.54
2022-11-22T09:13:25.405Z,3.56
2022-11-22T09:14:25.402Z,3.54
2022-11-22T09:15:25.665Z,3.53
2022-11-22T09:16:25.353Z,3.57
2022-11-22T09:17:25.603Z,3.57
2022-11-22T09:18:25.570Z,3.49
2022-11-22T09:19:25.561Z,3.54
2022-11-22T09:20:25.280Z,3.63
2022-11-22T09:21:25.533Z,3.61
2022-11-22T09:22:31.141Z,3.71
2022-11-22T09:23:25.237Z,3.69
2022-11-22T09:24:24.963Z,3.72
2022-11-22T09:25:25.824Z,3.64
2022-11-22T09:26:25.246Z,3.71
2022-11-22T09:27:25.417Z,3.66
2022-11-22T09:28:25.417Z,3.66
2022-11-22T09:29:25.126Z,3.64
2022-11-22T09:30:25.152Z,3.76
2022-11-22T09:31:25.357Z,3.75
2022-11-22T09:32:27.143Z,3.81
2022-11-22T09:33:25.311Z,3.86
2022-11-22T09:34:25.292Z,3.82
2022-11-22T09:35:25.047Z,3.94
2022-11-22T09:36:25.044Z,3.93
2022-11-22T09:37:25.147Z,4.02
2022-11-22T09:38:24.971Z,4.08
2022-11-22T09:39:25.212Z,4.11
2022-11-22T09:40:25.118Z,4.11
2022-11-22T09:41:25.606Z,4.11
2022-11-22T09:42:25.153Z,4.11
2022-11-22T09:43:24.637Z,4.18
2022-11-22T09:44:25.133Z,4.26
2022-11-22T09:45:25.118Z,4.28
2022-11-22T09:46:24.830Z,4.18
2022-11-22T09:47:25.171Z,4.3
2022-11-22T09:48:24.797Z,4.32
2022-11-22T09:49:25.043Z,4.36
2022-11-22T09:50:24.696Z,4.36
2022-11-22T09:51:25.012Z,4.32
2022-11-22T09:52:24.993Z,4.42
2022-11-22T09:53:24.723Z,4.47
2022-11-22T09:54:24.973Z,4.51
2022-11-22T09:55:28.766Z,4.48
2022-11-22T09:56:24.917Z,4.53
2022-11-22T09:57:25.252Z,4.57
2022-11-22T09:58:24.370Z,4.58
2022-11-22T09:59:24.862Z,4.53
2022-11-22T10:00:24.627Z,4.65
2022-11-22T10:01:24.914Z,4.61
2022-11-22T10:02:24.572Z,4.6
2022-11-22T10:03:24.550Z,4.51
2022-11-22T10:04:24.803Z,4.56
2022-11-22T10:05:24.590Z,4.64
2022-11-22T10:06:24.498Z,4.6
2022-11-22T10:07:24.925Z,4.66
2022-11-22T10:08:24.453Z,4.69
2022-11-22T10:09:24.694Z,4.74
2022-11-22T10:10:24.426Z,4.74
2022-11-22T10:11:24.161Z,4.88
2022-11-22T10:12:24.139Z,4.84
2022-11-22T10:13:24.981Z,4.78
2022-11-22T10:14:24.355Z,4.84
2022-11-22T10:15:24.588Z,4.92
2022-11-22T10:16:24.319Z,4.97
2022-11-22T10:17:24.302Z,4.95
2022-11-22T10:18:24.290Z,5.08
2022-11-22T10:19:24.526Z,5.09
2022-11-22T10:20:24.529Z,5.16
2022-11-22T10:21:24.494Z,5.21
2022-11-22T10:22:23.962Z,5.26
2022-11-22T10:23:24.470Z,5.31
2022-11-22T10:24:24.201Z,5.39
2022-11-22T10:25:24.170Z,5.45
2022-11-22T10:26:24.428Z,5.55
2022-11-22T10:27:23.888Z,5.6
2022-11-22T10:28:24.385Z,5.67
2022-11-22T10:29:24.726Z,5.66
2022-11-22T10:30:23.828Z,5.67
2022-11-22T10:31:24.325Z,5.57
2022-11-22T10:32:24.419Z,5.51
2022-11-22T10:33:24.294Z,5.44
2022-11-22T10:34:24.281Z,5.42
2022-11-22T10:35:24.005Z,5.41
2022-11-22T10:36:23.994Z,5.46
2022-11-22T10:37:23.985Z,5.41
2022-11-22T10:38:23.985Z,5.44
2022-11-22T10:39:24.205Z,5.34
2022-11-22T10:40:24.222Z,5.39
2022-11-22T10:41:24.211Z,5.36
2022-11-22T10:42:24.192Z,5.48
2022-11-22T10:43:24.173Z,5.51
2022-11-22T10:44:24.412Z,5.57
2022-11-22T10:45:24.759Z,5.49
2022-11-22T10:46:24.125Z,5.66
2022-11-22T10:47:23.858Z,5.63
2022-11-22T10:48:24.346Z,5.6
2022-11-22T10:49:24.086Z,5.64
2022-11-22T10:50:24.058Z,5.75
2022-11-22T10:51:24.308Z,5.7
2022-11-22T10:52:24.298Z,5.82
2022-11-22T10:53:24.021Z,5.89
2022-11-22T10:54:24.004Z,5.85
2022-11-22T10:55:24.250Z,5.99
2022-11-22T10:56:23.963Z,5.85
2022-11-22T10:57:24.215Z,5.91
2022-11-22T10:58:24.195Z,5.89
2022-11-22T10:59:31.364Z,5.99
2022-11-22T11:00:24.159Z,5.96
2022-11-22T11:01:24.683Z,5.96
2022-11-22T11:02:24.131Z,5.85
2022-11-22T11:03:23.855Z,5.89
2022-11-22T11:04:23.841Z,5.8
2022-11-22T11:05:23.567Z,5.75
2022-11-22T11:07:14.753Z,5.87
2022-11-22T11:07:25.020Z,5.82
2022-11-22T11:10:37.460Z,5.84
2022-11-22T11:11:25.333Z,5.87
2022-11-22T11:12:25.570Z,5.87
2022-11-22T11:13:25.556Z,5.75
2022-11-22T11:14:25.026Z,5.81
2022-11-22T11:15:25.036Z,5.85
2022-11-22T11:16:25.259Z,5.84
2022-11-22T11:17:25.770Z,5.81
2022-11-22T11:18:25.229Z,5.88
2022-11-22T11:19:25.458Z,5.75
2022-11-22T11:20:25.195Z,5.87
2022-11-22T11:21:25.183Z,5.82
2022-11-22T11:23:16.816Z,5.72
2022-11-22T11:23:26.232Z,5.7
2022-11-22T11:24:26.464Z,5.63
2022-11-22T11:25:26.708Z,5.66
2022-11-22T11:26:26.701Z,5.73
2022-11-22T11:27:26.669Z,5.7
2022-11-22T11:28:26.676Z,5.75
2022-11-22T11:29:26.381Z,5.81
2022-11-22T11:30:26.647Z,5.8
2022-11-22T11:31:26.651Z,5.85
2022-11-22T11:32:26.334Z,5.95
2022-11-22T11:33:26.949Z,6.03
2022-11-22T11:34:26.321Z,6.07
2022-11-22T11:35:26.030Z,6.03
2022-11-22T11:36:26.271Z,6.13
2022-11-22T11:37:26.312Z,6.2
2022-11-22T11:38:26.243Z,6.17
2022-11-22T11:39:26.223Z,6.06
2022-11-22T11:40:25.954Z,6.1
2022-11-22T11:41:26.200Z,6.02
2022-11-22T11:42:25.930Z,6.06
2022-11-22T11:43:25.906Z,6.02
2022-11-22T11:44:26.153Z,6.09
2022-11-22T11:45:26.148Z,5.96
2022-11-22T11:46:26.111Z,5.91
2022-11-22T11:47:25.943Z,5.91
2022-11-22T11:48:25.826Z,5.95
2022-11-22T11:49:26.694Z,5.91
2022-11-22T11:50:29.126Z,5.81
2022-11-22T11:51:26.066Z,5.82
2022-11-22T11:52:26.039Z,5.82
2022-11-22T11:53:26.005Z,5.84
2022-11-22T11:54:26.244Z,5.75
2022-11-22T11:55:26.246Z,5.75
2022-11-22T11:56:25.961Z,5.81
2022-11-22T11:57:26.197Z,5.73
2022-11-22T11:58:26.879Z,5.78
2022-11-22T11:59:25.942Z,5.78
2022-11-22T12:00:25.943Z,5.73
2022-11-22T12:01:25.646Z,5.69
2022-11-22T12:02:26.047Z,5.62
2022-11-22T12:03:26.116Z,5.55
2022-11-22T12:04:25.584Z,5.52
2022-11-22T12:05:26.437Z,5.6
2022-11-22T12:06:25.801Z,5.59
2022-11-22T12:07:25.967Z,5.55
2022-11-22T12:08:25.515Z,5.46
2022-11-22T12:09:26.015Z,5.44
2022-11-22T12:10:25.738Z,5.39
2022-11-22T12:11:25.990Z,5.41
2022-11-22T12:12:25.712Z,5.44
2022-11-22T12:13:25.952Z,5.39
2022-11-22T12:14:26.104Z,5.45
2022-11-22T12:15:25.922Z,5.6
2022-11-22T12:16:25.392Z,5.62
2022-11-22T12:17:25.884Z,5.59
2022-11-22T12:18:25.876Z,5.63
2022-11-22T12:19:29.515Z,5.52
2022-11-22T12:20:25.580Z,5.54
2022-11-22T12:21:26.186Z,5.59
2022-11-22T12:22:53.442Z,5.42
2022-11-22T12:23:25.540Z,5.51
2022-11-22T12:25:34.200Z,5.52
2022-11-22T12:25:46.511Z,5.41
2022-11-22T12:26:46.511Z,5.42
2022-11-22T12:27:46.218Z,5.37
2022-11-22T12:28:46.451Z,5.39
2022-11-22T12:29:46.185Z,5.42
2022-11-22T12:30:46.179Z,5.37
2022-11-22T12:31:46.150Z,5.45
2022-11-22T12:32:47.150Z,5.41
2022-11-22T12:33:47.411Z,5.39
2022-11-22T12:34:47.420Z,5.48
2022-11-22T12:35:47.346Z,5.44
2022-11-22T12:36:47.654Z,5.46
2022-11-22T12:37:47.088Z,5.44
2022-11-22T12:38:46.789Z,5.41
2022-11-22T12:39:47.286Z,5.42
2022-11-22T12:40:47.268Z,5.45
2022-11-22T12:41:47.281Z,5.39
2022-11-22T12:42:46.987Z,5.41
2022-11-22T12:43:46.964Z,5.37
2022-11-22T12:44:46.965Z,5.36
2022-11-22T12:45:46.930Z,5.42
2022-11-22T12:46:46.694Z,5.34
2022-11-22T12:47:46.899Z,5.33
2022-11-22T12:48:52.923Z,5.26
2022-11-22T12:49:47.124Z,5.28
2022-11-22T12:50:46.851Z,5.24
2022-11-22T12:51:46.832Z,5.27
2022-11-22T12:52:47.432Z,5.21
2022-11-22T12:53:47.064Z,5.24
2022-11-22T12:54:46.538Z,5.31
2022-11-22T12:55:46.777Z,5.27
2022-11-22T12:56:46.510Z,5.2
2022-11-22T12:57:47.092Z,5.21
2022-11-22T12:58:46.975Z,5.31
2022-11-22T12:59:46.963Z,5.36
2022-11-22T13:00:46.687Z,5.26
2022-11-22T13:01:46.978Z,5.31
2022-11-22T13:02:46.921Z,5.39
2022-11-22T13:03:46.393Z,5.42
2022-11-22T13:04:46.384Z,5.44
2022-11-22T13:05:46.606Z,5.44
2022-11-22T13:06:46.356Z,5.39
2022-11-22T13:07:46.848Z,5.42
2022-11-22T13:08:54.750Z,5.45
2022-11-22T13:09:46.806Z,5.46
2022-11-22T13:10:46.524Z,5.42
2022-11-22T13:11:46.772Z,5.45
2022-11-22T13:12:46.508Z,5.39
2022-11-22T13:13:46.474Z,5.37
2022-11-22T13:14:46.468Z,5.44
2022-11-22T13:15:46.445Z,5.46
2022-11-22T13:16:46.688Z,5.37
2022-11-22T13:17:46.421Z,5.36
2022-11-22T13:18:46.666Z,5.42
2022-11-22T13:19:49.388Z,5.39
2022-11-22T13:20:48.046Z,5.36
2022-11-22T13:21:46.633Z,5.39
2022-11-22T13:22:46.335Z,5.34
2022-11-22T13:23:46.327Z,5.36
2022-11-22T13:24:46.848Z,5.37
2022-11-22T13:25:46.288Z,5.34
2022-11-22T13:26:46.266Z,5.37
2022-11-22T13:27:46.515Z,5.37
2022-11-22T13:28:46.538Z,5.28
2022-11-22T13:29:46.231Z,5.2
2022-11-22T13:30:46.215Z,5.16
2022-11-22T13:31:46.452Z,5.16
2022-11-22T13:32:45.914Z,5.18
2022-11-22T13:33:46.416Z,5.13
2022-11-22T13:34:45.898Z,5.21
2022-11-22T13:35:46.125Z,5.16
2022-11-22T13:36:46.130Z,5.23
2022-11-22T13:37:46.098Z,5.18
2022-11-22T13:38:46.344Z,5.13
2022-11-22T13:39:45.806Z,5.1
2022-11-22T13:40:46.681Z,5.1
2022-11-22T13:41:46.041Z,5.08
2022-11-22T13:42:46.275Z,5.06